Fort Detrick, Maryland
Current Conditions -  °F | °C
As of 6:50 AM on Thursday 23 Oct 2014 (Local Time) from KFDK Reporting Station
Broken Clouds Broken Clouds  
Wind Chill: 57°   Ceiling: 3400
Heat Index: 57°   Visibility: 10mi
Dew Point: 43°   Wind: 10mph
Humidity: 59%   Direction: 340°NNW
Pressure: 29.94"   Gusts: 17mph
Location:  39.478°N, 77.4561°W
Report Text: KFDK 231050Z 34009G15KT 10SM BKN034 14/06 A2994
Loading
Personal Weather Stations






























Interactive Weather Map
Tropical Storm Tracking
New forecast layout! Learn more

10-Day Weather Forecast

Advertisements
Track Severe Weather on mobile